createdAt,value
2018-03-27T00:00:09.110Z,0.00
2018-03-27T00:01:09.089Z,0.00
2018-03-27T00:02:09.056Z,0.00
2018-03-27T00:03:09.040Z,0.00
2018-03-27T00:04:09.013Z,0.00
2018-03-27T00:05:08.963Z,0.00
2018-03-27T00:06:08.998Z,0.00
2018-03-27T00:07:08.924Z,0.00
2018-03-27T00:08:08.868Z,0.00
2018-03-27T00:09:08.833Z,0.00
2018-03-27T00:10:08.899Z,0.00
2018-03-27T00:11:08.772Z,0.00
2018-03-27T00:12:08.740Z,0.00
2018-03-27T00:13:08.717Z,0.00
2018-03-27T00:14:08.703Z,0.00
2018-03-27T00:15:08.652Z,0.00
2018-03-27T00:16:08.635Z,0.00
2018-03-27T00:17:08.600Z,0.00
2018-03-27T00:18:08.557Z,0.00
2018-03-27T00:19:08.557Z,0.00
2018-03-27T00:20:08.504Z,0.00
2018-03-27T00:21:08.467Z,0.00
2018-03-27T00:22:08.448Z,0.00
2018-03-27T00:23:08.410Z,0.00
2018-03-27T00:24:08.369Z,0.00
2018-03-27T00:25:08.365Z,0.00
2018-03-27T00:26:08.317Z,0.00
2018-03-27T00:27:08.284Z,0.00
2018-03-27T00:28:08.275Z,0.00
2018-03-27T00:29:08.222Z,0.00
2018-03-27T00:30:08.189Z,0.00
2018-03-27T00:31:08.178Z,0.00
2018-03-27T00:32:08.134Z,0.00
2018-03-27T00:33:08.104Z,0.00
2018-03-27T00:34:08.084Z,0.00
2018-03-27T00:35:08.042Z,0.00
2018-03-27T00:36:08.067Z,0.00
2018-03-27T00:37:07.990Z,0.00
2018-03-27T00:38:08.052Z,0.00
2018-03-27T00:39:07.909Z,0.00
2018-03-27T00:40:07.900Z,0.00
2018-03-27T00:41:07.915Z,0.00
2018-03-27T00:42:07.821Z,0.00
2018-03-27T00:43:07.799Z,0.00
2018-03-27T00:44:07.758Z,0.00
2018-03-27T00:45:07.730Z,0.00
2018-03-27T00:46:07.720Z,0.00
2018-03-27T00:47:07.665Z,0.00
2018-03-27T00:48:07.641Z,0.00
2018-03-27T00:49:07.619Z,0.00
2018-03-27T00:50:07.568Z,0.00
2018-03-27T00:51:07.548Z,0.00
2018-03-27T00:52:07.525Z,0.00
2018-03-27T00:53:07.473Z,0.00
2018-03-27T00:54:07.452Z,0.00
2018-03-27T00:55:07.429Z,0.00
2018-03-27T00:56:07.397Z,0.00
2018-03-27T00:57:07.370Z,0.00
2018-03-27T00:58:07.340Z,0.00
2018-03-27T00:59:07.303Z,0.00
2018-03-27T01:00:07.268Z,0.00
2018-03-27T01:01:07.241Z,0.00
2018-03-27T01:02:07.203Z,0.00
2018-03-27T01:03:07.175Z,0.00
2018-03-27T01:04:07.172Z,0.00
2018-03-27T01:05:07.205Z,0.00
2018-03-27T01:06:07.075Z,0.00
2018-03-27T01:07:07.050Z,0.00
2018-03-27T01:08:07.014Z,0.00
2018-03-27T01:09:06.982Z,0.00
2018-03-27T01:10:06.970Z,0.00
2018-03-27T01:11:06.922Z,0.00
2018-03-27T01:12:06.891Z,0.00
2018-03-27T01:13:06.867Z,0.00
2018-03-27T01:14:06.827Z,0.00
2018-03-27T01:15:06.812Z,0.00
2018-03-27T01:16:06.773Z,0.00
2018-03-27T01:17:06.733Z,0.00
2018-03-27T01:18:06.707Z,0.00
2018-03-27T01:19:06.745Z,0.00
2018-03-27T01:20:06.643Z,0.00
2018-03-27T01:21:06.606Z,0.00
2018-03-27T01:22:06.676Z,0.00
2018-03-27T01:23:06.545Z,0.00
2018-03-27T01:24:06.524Z,0.00
2018-03-27T01:25:06.501Z,0.00
2018-03-27T01:26:06.460Z,0.00
2018-03-27T01:27:06.417Z,0.00
2018-03-27T01:28:06.399Z,0.00
2018-03-27T01:29:06.382Z,0.00
2018-03-27T01:30:06.333Z,0.00
2018-03-27T01:31:06.313Z,0.00
2018-03-27T01:32:06.270Z,0.00
2018-03-27T01:33:06.252Z,0.00
2018-03-27T01:34:06.239Z,0.00
2018-03-27T01:35:06.221Z,0.00
2018-03-27T01:36:06.195Z,0.00
2018-03-27T01:37:06.122Z,0.00
2018-03-27T01:38:06.088Z,0.00
2018-03-27T01:39:06.043Z,0.00
2018-03-27T01:40:06.032Z,0.00
2018-03-27T01:41:05.998Z,0.00
2018-03-27T01:42:05.956Z,0.00
2018-03-27T01:43:05.934Z,0.00
2018-03-27T01:44:05.890Z,0.00
2018-03-27T01:45:05.856Z,0.00
2018-03-27T01:46:05.837Z,0.00
2018-03-27T01:47:05.804Z,0.00
2018-03-27T01:48:05.928Z,0.00
2018-03-27T01:49:05.747Z,0.00
2018-03-27T01:50:05.734Z,0.00
2018-03-27T01:51:05.668Z,0.00
2018-03-27T01:52:05.674Z,0.00
2018-03-27T01:53:05.778Z,0.00
2018-03-27T01:54:05.588Z,0.00
2018-03-27T01:55:05.566Z,0.00
2018-03-27T01:56:05.537Z,0.00
2018-03-27T01:57:05.492Z,0.00
2018-03-27T01:58:05.469Z,0.00
2018-03-27T01:59:05.586Z,0.00
2018-03-27T02:00:05.388Z,0.00
2018-03-27T02:01:05.378Z,0.00
2018-03-27T02:02:05.328Z,0.00
2018-03-27T02:03:05.295Z,0.00
2018-03-27T02:04:05.284Z,0.00
2018-03-27T02:05:05.237Z,0.00
2018-03-27T02:06:05.263Z,0.00
2018-03-27T02:07:05.189Z,0.00
2018-03-27T02:08:05.146Z,0.00
2018-03-27T02:09:05.268Z,0.00
2018-03-27T02:10:05.153Z,0.00
2018-03-27T02:11:05.045Z,0.00
2018-03-27T02:12:05.023Z,0.00
2018-03-27T02:13:04.999Z,0.00
2018-03-27T02:14:04.957Z,0.00
2018-03-27T02:15:04.923Z,0.00
2018-03-27T02:16:04.906Z,0.00
2018-03-27T02:17:04.854Z,0.00
2018-03-27T02:18:04.823Z,0.00
2018-03-27T02:19:04.817Z,0.00
2018-03-27T02:20:04.765Z,0.00
2018-03-27T02:21:04.731Z,0.00
2018-03-27T02:22:04.727Z,0.00
2018-03-27T02:23:04.665Z,0.00
2018-03-27T02:24:04.648Z,0.00
2018-03-27T02:25:04.626Z,0.00
2018-03-27T02:26:04.585Z,0.00
2018-03-27T02:27:04.546Z,0.00
2018-03-27T02:28:04.539Z,0.00
2018-03-27T02:29:04.484Z,0.00
2018-03-27T02:30:04.498Z,0.00
2018-03-27T02:31:04.434Z,0.00
2018-03-27T02:32:04.383Z,0.00
2018-03-27T02:33:04.358Z,0.00
2018-03-27T02:34:04.348Z,0.00
2018-03-27T02:35:04.299Z,0.00
2018-03-27T02:36:04.260Z,0.00
2018-03-27T02:37:04.241Z,0.00
2018-03-27T02:38:04.191Z,0.00
2018-03-27T02:39:04.166Z,0.00
2018-03-27T02:40:04.154Z,0.00
2018-03-27T02:41:04.106Z,0.00
2018-03-27T02:42:04.113Z,0.00
2018-03-27T02:43:04.119Z,0.00
2018-03-27T02:44:04.015Z,0.00
2018-03-27T02:45:03.985Z,0.00
2018-03-27T02:46:03.974Z,0.00
2018-03-27T02:47:03.916Z,0.00
2018-03-27T02:48:03.973Z,0.00
2018-03-27T02:49:03.865Z,0.00
2018-03-27T02:50:03.813Z,0.00
2018-03-27T02:51:03.820Z,0.00
2018-03-27T02:52:03.767Z,0.00
2018-03-27T02:53:03.723Z,0.00
2018-03-27T02:54:03.749Z,0.00
2018-03-27T02:55:03.664Z,0.00
2018-03-27T02:56:03.630Z,0.00
2018-03-27T02:57:03.593Z,0.00
2018-03-27T02:58:03.585Z,0.00
2018-03-27T02:59:03.532Z,0.00
2018-03-27T03:00:03.503Z,0.00
2018-03-27T03:01:03.472Z,0.00
2018-03-27T03:02:03.447Z,0.00
2018-03-27T03:03:03.408Z,0.00
2018-03-27T03:04:03.389Z,0.00
2018-03-27T03:05:03.338Z,0.00
2018-03-27T03:06:03.309Z,0.00
2018-03-27T03:07:03.292Z,0.00
2018-03-27T03:08:03.260Z,0.00
2018-03-27T03:09:03.219Z,0.00
2018-03-27T03:10:03.214Z,0.00
2018-03-27T03:11:03.158Z,0.00
2018-03-27T03:12:03.121Z,0.00
2018-03-27T03:13:03.140Z,0.00
2018-03-27T03:14:03.057Z,0.00
2018-03-27T03:15:03.032Z,0.00
2018-03-27T03:16:03.015Z,0.00
2018-03-27T03:17:02.963Z,0.00
2018-03-27T03:18:02.939Z,0.00
2018-03-27T03:19:02.905Z,0.00
2018-03-27T03:20:02.862Z,0.00
2018-03-27T03:21:02.838Z,0.00
2018-03-27T03:22:02.919Z,0.00
2018-03-27T03:23:02.776Z,0.00
2018-03-27T03:24:02.737Z,0.00
2018-03-27T03:25:02.738Z,0.00
2018-03-27T03:26:02.670Z,0.00
2018-03-27T03:27:02.650Z,0.00
2018-03-27T03:28:02.617Z,0.00
2018-03-27T03:29:02.579Z,0.00
2018-03-27T03:30:02.560Z,0.00
2018-03-27T03:31:02.525Z,0.00
2018-03-27T03:32:02.483Z,0.00
2018-03-27T03:33:02.453Z,0.00
2018-03-27T03:34:02.461Z,0.00
2018-03-27T03:35:02.390Z,0.00
2018-03-27T03:36:02.362Z,0.00
2018-03-27T03:37:02.362Z,0.00
2018-03-27T03:38:02.300Z,0.00
2018-03-27T03:39:02.256Z,0.00
2018-03-27T03:40:02.228Z,0.00
2018-03-27T03:41:02.195Z,0.00
2018-03-27T03:42:02.169Z,0.00
2018-03-27T03:43:02.128Z,0.00
2018-03-27T03:44:02.112Z,0.00
2018-03-27T03:45:02.072Z,0.00
2018-03-27T03:46:02.097Z,0.00
2018-03-27T03:47:02.015Z,0.00
2018-03-27T03:48:01.973Z,0.00
2018-03-27T03:49:02.016Z,0.00
2018-03-27T03:50:01.912Z,0.00
2018-03-27T03:51:01.894Z,0.00
2018-03-27T03:52:01.870Z,0.00
2018-03-27T03:53:01.863Z,0.00
2018-03-27T03:54:01.783Z,0.00
2018-03-27T03:55:01.756Z,0.00
2018-03-27T03:56:01.725Z,0.00
2018-03-27T03:57:01.693Z,0.00
2018-03-27T03:58:01.722Z,0.00
2018-03-27T03:59:01.637Z,0.00
2018-03-27T04:00:01.596Z,0.00
2018-03-27T04:01:01.585Z,0.00
2018-03-27T04:02:01.523Z,0.00
2018-03-27T04:03:01.491Z,0.00
2018-03-27T04:04:01.457Z,0.00
2018-03-27T04:05:01.438Z,0.00
2018-03-27T04:06:01.409Z,0.00
2018-03-27T04:07:01.367Z,0.00
2018-03-27T04:08:01.352Z,0.00
2018-03-27T04:09:01.313Z,0.00
2018-03-27T04:10:01.273Z,0.00
2018-03-27T04:11:01.330Z,0.00
2018-03-27T04:12:01.213Z,0.00
2018-03-27T04:13:01.182Z,0.00
2018-03-27T04:14:01.146Z,0.00
2018-03-27T04:15:01.111Z,0.00
2018-03-27T04:16:01.104Z,0.00
2018-03-27T04:17:01.045Z,0.00
2018-03-27T04:18:01.015Z,0.00
2018-03-27T04:19:00.985Z,0.00
2018-03-27T04:20:00.947Z,0.00
2018-03-27T04:21:00.914Z,0.00
2018-03-27T04:22:00.883Z,0.00
2018-03-27T04:23:00.849Z,0.00
2018-03-27T04:24:00.826Z,0.00
2018-03-27T04:25:00.820Z,0.00
2018-03-27T04:26:00.756Z,0.00
2018-03-27T04:27:00.733Z,0.00
2018-03-27T04:28:00.702Z,0.00
2018-03-27T04:29:00.673Z,0.00
2018-03-27T04:30:00.627Z,0.00
2018-03-27T04:31:00.601Z,0.00
2018-03-27T04:32:00.568Z,0.00
2018-03-27T04:33:00.527Z,0.00
2018-03-27T04:34:00.500Z,0.00
2018-03-27T04:35:00.466Z,0.00
2018-03-27T04:36:00.442Z,0.00
2018-03-27T04:37:00.407Z,0.00
2018-03-27T04:38:00.371Z,0.00
2018-03-27T04:39:00.341Z,0.00
2018-03-27T04:40:00.386Z,0.00
2018-03-27T04:41:00.274Z,0.00
2018-03-27T04:42:00.244Z,0.00
2018-03-27T04:43:00.216Z,0.00
2018-03-27T04:44:00.179Z,0.00
2018-03-27T04:45:00.183Z,0.00
2018-03-27T04:46:00.121Z,0.00
2018-03-27T04:47:00.080Z,0.00
2018-03-27T04:48:00.043Z,0.00
2018-03-27T04:49:00.021Z,0.00
2018-03-27T04:50:00.066Z,0.00
2018-03-27T04:50:59.950Z,0.00
2018-03-27T04:51:59.925Z,0.00
2018-03-27T04:52:59.887Z,0.00
2018-03-27T04:53:59.858Z,0.00
2018-03-27T04:54:59.822Z,0.00
2018-03-27T04:55:59.788Z,0.00
2018-03-27T04:56:59.755Z,0.00
2018-03-27T04:57:59.874Z,0.00
2018-03-27T04:58:59.698Z,0.00
2018-03-27T04:59:59.661Z,0.00
2018-03-27T05:00:59.626Z,0.00
2018-03-27T05:01:59.597Z,0.00
2018-03-27T05:02:59.563Z,0.00
2018-03-27T05:03:59.537Z,0.00
2018-03-27T05:04:59.502Z,0.00
2018-03-27T05:05:59.475Z,0.00
2018-03-27T05:06:59.437Z,0.00
2018-03-27T05:07:59.402Z,0.00
2018-03-27T05:08:59.369Z,0.00
2018-03-27T05:09:59.336Z,0.00
2018-03-27T05:10:59.319Z,0.00
2018-03-27T05:11:59.311Z,0.00
2018-03-27T05:12:59.238Z,5.63
2018-03-27T05:13:59.208Z,5.63
2018-03-27T05:14:59.203Z,5.63
2018-03-27T05:15:59.157Z,5.63
2018-03-27T05:16:59.169Z,5.63
2018-03-27T05:17:59.079Z,5.63
2018-03-27T05:18:59.059Z,11.25
2018-03-27T05:19:59.092Z,11.25
2018-03-27T05:20:58.983Z,11.25
2018-03-27T05:21:58.955Z,11.25
2018-03-27T05:22:58.916Z,11.25
2018-03-27T05:23:58.888Z,16.88
2018-03-27T05:24:58.853Z,16.88
2018-03-27T05:25:58.848Z,16.88
2018-03-27T05:26:58.818Z,22.50
2018-03-27T05:27:58.750Z,22.50
2018-03-27T05:28:58.719Z,22.50
2018-03-27T05:29:58.719Z,22.50
2018-03-27T05:30:58.665Z,28.13
2018-03-27T05:31:58.620Z,28.13
2018-03-27T05:32:58.591Z,28.13
2018-03-27T05:33:58.635Z,33.75
2018-03-27T05:34:58.530Z,33.75
2018-03-27T05:35:58.639Z,33.75
2018-03-27T05:36:58.463Z,39.38
2018-03-27T05:37:58.440Z,39.38
2018-03-27T05:38:58.408Z,45.00
2018-03-27T05:39:58.369Z,45.00
2018-03-27T05:40:58.333Z,45.00
2018-03-27T05:41:58.313Z,50.63
2018-03-27T05:42:58.330Z,50.63
2018-03-27T05:43:58.237Z,50.63
2018-03-27T05:44:58.244Z,56.25
2018-03-27T05:45:58.176Z,56.25
2018-03-27T05:46:58.283Z,61.88
2018-03-27T05:47:58.112Z,61.88
2018-03-27T05:48:58.071Z,61.88
2018-03-27T05:49:58.044Z,67.50
2018-03-27T05:50:58.011Z,67.50
2018-03-27T05:51:57.978Z,73.13
2018-03-27T05:52:57.948Z,73.13
2018-03-27T05:53:57.912Z,73.13
2018-03-27T05:54:57.892Z,73.13
2018-03-27T05:55:57.938Z,78.75
2018-03-27T05:56:57.822Z,78.75
2018-03-27T05:57:57.792Z,78.75
2018-03-27T05:58:57.753Z,84.38
2018-03-27T05:59:57.721Z,84.38
2018-03-27T06:00:57.698Z,90.00
2018-03-27T06:01:57.661Z,90.00
2018-03-27T06:02:57.629Z,95.63
2018-03-27T06:03:57.596Z,95.63
2018-03-27T06:04:57.573Z,95.63
2018-03-27T06:05:57.555Z,95.63
2018-03-27T06:06:57.506Z,95.63
2018-03-27T06:07:57.476Z,101.25
2018-03-27T06:08:57.432Z,101.25
2018-03-27T06:09:57.407Z,106.88
2018-03-27T06:10:57.372Z,106.88
2018-03-27T06:11:57.340Z,112.50
2018-03-27T06:12:57.317Z,112.50
2018-03-27T06:13:57.306Z,112.50
2018-03-27T06:14:57.302Z,112.50
2018-03-27T06:15:57.220Z,118.13
2018-03-27T06:16:57.183Z,118.13
2018-03-27T06:17:57.156Z,118.13
2018-03-27T06:18:57.124Z,118.13
2018-03-27T06:19:57.339Z,123.75
2018-03-27T06:20:57.809Z,123.75
2018-03-27T06:21:57.354Z,123.75
2018-03-27T06:22:59.326Z,129.38
2018-03-27T06:23:58.464Z,129.38
2018-03-27T06:24:57.027Z,135.00
2018-03-27T06:25:56.896Z,146.25
2018-03-27T06:26:56.863Z,151.88
2018-03-27T06:27:57.006Z,157.50
2018-03-27T06:28:56.863Z,157.50
2018-03-27T06:29:56.813Z,163.13
2018-03-27T06:30:56.907Z,163.13
2018-03-27T06:31:56.780Z,168.75
2018-03-27T06:32:56.738Z,168.75
2018-03-27T06:33:56.652Z,168.75
2018-03-27T06:34:56.712Z,168.75
2018-03-27T06:35:56.686Z,163.13
2018-03-27T06:36:56.579Z,163.13
2018-03-27T06:37:56.539Z,168.75
2018-03-27T06:38:56.495Z,168.75
2018-03-27T06:39:56.462Z,174.38
2018-03-27T06:40:56.427Z,180.00
2018-03-27T06:41:56.498Z,180.00
2018-03-27T06:42:56.380Z,180.00
2018-03-27T06:43:56.755Z,185.63
2018-03-27T06:44:56.299Z,185.63
2018-03-27T06:45:56.274Z,185.63
2018-03-27T06:47:00.835Z,185.63
2018-03-27T06:49:24.784Z,180.00
2018-03-27T06:50:23.479Z,174.38
2018-03-27T06:52:26.469Z,180.00
2018-03-27T06:53:26.321Z,174.38
2018-03-27T06:55:28.701Z,174.38
2018-03-27T06:56:29.276Z,180.00
2018-03-27T06:58:30.923Z,185.63
2018-03-27T06:59:31.782Z,191.25
2018-03-27T07:01:34.319Z,208.13
2018-03-27T07:02:34.254Z,213.75
2018-03-27T07:04:40.310Z,213.75
2018-03-27T07:05:39.871Z,213.75
2018-03-27T07:07:44.316Z,213.75
2018-03-27T07:08:44.406Z,219.38
2018-03-27T07:10:47.739Z,219.38
2018-03-27T07:11:47.019Z,225.00
2018-03-27T07:13:55.028Z,225.00
2018-03-27T07:14:55.033Z,225.00
2018-03-27T07:16:57.774Z,230.63
2018-03-27T07:17:57.813Z,230.63
2018-03-27T07:20:03.562Z,230.63
2018-03-27T07:21:04.668Z,230.63
2018-03-27T07:23:07.997Z,236.25
2018-03-27T07:24:07.530Z,236.25
2018-03-27T07:26:12.897Z,236.25
2018-03-27T07:27:12.325Z,236.25
2018-03-27T07:29:20.948Z,241.88
2018-03-27T07:30:21.644Z,241.88
2018-03-27T07:32:24.494Z,241.88
2018-03-27T07:33:24.444Z,247.50
2018-03-27T07:35:29.648Z,247.50
2018-03-27T07:36:28.808Z,247.50
2018-03-27T07:38:34.114Z,253.13
2018-03-27T07:39:33.130Z,253.13
2018-03-27T07:41:39.117Z,253.13
2018-03-27T07:42:39.193Z,253.13
2018-03-27T07:43:38.908Z,258.75
2018-03-27T07:44:38.832Z,258.75
2018-03-27T07:45:38.647Z,258.75
2018-03-27T07:46:38.538Z,258.75
2018-03-27T07:47:38.539Z,258.75
2018-03-27T07:48:38.475Z,264.38
2018-03-27T07:49:38.650Z,264.38
2018-03-27T07:50:38.413Z,264.38
2018-03-27T07:51:38.388Z,264.38
2018-03-27T07:52:38.355Z,264.38
2018-03-27T07:53:38.322Z,270.00
2018-03-27T07:54:38.287Z,270.00
2018-03-27T07:55:38.270Z,270.00
2018-03-27T07:56:38.225Z,270.00
2018-03-27T07:57:38.195Z,270.00
2018-03-27T07:58:38.201Z,270.00
2018-03-27T07:59:38.139Z,275.63
2018-03-27T08:00:38.108Z,275.63
2018-03-27T08:01:38.079Z,275.63
2018-03-27T08:02:38.072Z,275.63
2018-03-27T08:03:38.035Z,281.25
2018-03-27T08:04:37.995Z,281.25
2018-03-27T08:05:37.958Z,281.25
2018-03-27T08:06:37.919Z,281.25
2018-03-27T08:07:39.539Z,281.25
2018-03-27T08:08:37.860Z,286.88
2018-03-27T08:09:37.831Z,286.88
2018-03-27T08:10:37.800Z,286.88
2018-03-27T08:11:37.774Z,286.88
2018-03-27T08:12:37.753Z,286.88
2018-03-27T08:13:37.722Z,292.50
2018-03-27T08:14:37.687Z,292.50
2018-03-27T08:15:37.663Z,292.50
2018-03-27T08:16:37.622Z,292.50
2018-03-27T08:17:37.596Z,298.13
2018-03-27T08:18:37.561Z,298.13
2018-03-27T08:19:37.539Z,298.13
2018-03-27T08:20:37.499Z,303.75
2018-03-27T08:21:37.474Z,303.75
2018-03-27T08:22:37.436Z,303.75
2018-03-27T08:23:37.410Z,309.38
2018-03-27T08:24:37.379Z,309.38
2018-03-27T08:25:37.641Z,309.38
2018-03-27T08:26:37.328Z,315.00
2018-03-27T08:27:37.287Z,315.00
2018-03-27T08:28:37.257Z,315.00
2018-03-27T08:29:37.240Z,315.00
2018-03-27T08:30:37.202Z,320.63
2018-03-27T08:31:37.164Z,320.63
2018-03-27T08:32:37.131Z,326.25
2018-03-27T08:33:37.100Z,326.25
2018-03-27T08:34:37.080Z,331.88
2018-03-27T08:35:37.212Z,337.50
2018-03-27T08:36:37.022Z,343.13
2018-03-27T08:37:36.981Z,343.13
2018-03-27T08:38:37.138Z,348.75
2018-03-27T08:39:36.928Z,348.75
2018-03-27T08:40:38.528Z,354.38
2018-03-27T08:41:36.866Z,354.38
2018-03-27T08:42:36.841Z,354.38
2018-03-27T08:43:36.803Z,360.00
2018-03-27T08:44:36.780Z,360.00
2018-03-27T08:45:36.752Z,360.00
2018-03-27T08:46:36.712Z,360.00
2018-03-27T08:47:36.768Z,365.63
2018-03-27T08:48:36.666Z,371.25
2018-03-27T08:49:36.630Z,376.88
2018-03-27T08:50:36.648Z,376.88
2018-03-27T08:51:36.566Z,382.50
2018-03-27T08:52:38.524Z,393.75
2018-03-27T08:53:36.510Z,399.38
2018-03-27T08:54:36.497Z,405.00
2018-03-27T08:55:37.674Z,405.00
2018-03-27T08:56:36.425Z,416.25
2018-03-27T08:57:36.396Z,427.50
2018-03-27T08:58:36.363Z,438.75
2018-03-27T08:59:36.337Z,450.00
2018-03-27T09:00:36.329Z,455.63
2018-03-27T09:01:36.289Z,433.13
2018-03-27T09:02:36.239Z,461.25
2018-03-27T09:03:36.211Z,472.50
2018-03-27T09:04:36.193Z,478.13
2018-03-27T09:05:36.155Z,506.25
2018-03-27T09:06:36.129Z,540.00
2018-03-27T09:07:38.032Z,556.88
2018-03-27T09:08:36.065Z,556.88
2018-03-27T09:09:36.032Z,556.88
2018-03-27T09:10:36.016Z,573.75
2018-03-27T09:11:35.988Z,607.50
2018-03-27T09:12:35.950Z,641.25
2018-03-27T09:13:35.942Z,641.25
2018-03-27T09:14:35.892Z,658.13
2018-03-27T09:15:35.867Z,663.75
2018-03-27T09:16:35.845Z,675.00
2018-03-27T09:17:35.808Z,703.13
2018-03-27T09:18:35.777Z,691.88
2018-03-27T09:19:35.831Z,697.50
2018-03-27T09:20:35.730Z,691.88
2018-03-27T09:21:35.754Z,686.25
2018-03-27T09:22:35.712Z,680.63
2018-03-27T09:23:35.635Z,691.88
2018-03-27T09:24:38.599Z,703.13
2018-03-27T09:25:35.586Z,680.63
2018-03-27T09:26:35.556Z,663.75
2018-03-27T09:27:35.527Z,652.50
2018-03-27T09:28:35.531Z,618.75
2018-03-27T09:29:35.487Z,630.00
2018-03-27T09:30:35.445Z,613.13
2018-03-27T09:31:35.445Z,613.13
2018-03-27T09:32:35.385Z,601.88
2018-03-27T09:33:35.361Z,585.00
2018-03-27T09:34:35.335Z,590.63
2018-03-27T09:35:35.306Z,618.75
2018-03-27T09:36:35.280Z,652.50
2018-03-27T09:37:35.285Z,708.75
2018-03-27T09:38:35.228Z,759.38
2018-03-27T09:39:35.243Z,776.25
2018-03-27T09:40:35.177Z,804.38
2018-03-27T09:41:35.172Z,787.50
2018-03-27T09:42:35.109Z,776.25
2018-03-27T09:43:35.092Z,798.75
2018-03-27T09:44:35.057Z,753.75
2018-03-27T09:45:35.041Z,742.50
2018-03-27T09:46:35.006Z,781.88
2018-03-27T09:47:34.972Z,753.75
2018-03-27T09:48:34.946Z,765.00
2018-03-27T09:49:34.922Z,787.50
2018-03-27T09:50:34.911Z,776.25
2018-03-27T09:51:34.873Z,748.13
2018-03-27T09:52:34.842Z,731.25
2018-03-27T09:53:34.816Z,731.25
2018-03-27T09:54:34.786Z,776.25
2018-03-27T09:55:34.761Z,770.63
2018-03-27T09:56:34.744Z,770.63
2018-03-27T09:57:34.707Z,765.00
2018-03-27T09:58:34.679Z,742.50
2018-03-27T09:59:34.653Z,748.13
2018-03-27T10:00:34.627Z,736.88
2018-03-27T10:01:34.602Z,742.50
2018-03-27T10:02:34.569Z,748.13
2018-03-27T10:03:34.551Z,765.00
2018-03-27T10:04:34.523Z,765.00
2018-03-27T10:05:34.490Z,770.63
2018-03-27T10:06:34.465Z,770.63
2018-03-27T10:07:34.436Z,765.00
2018-03-27T10:08:34.415Z,765.00
2018-03-27T10:09:34.383Z,753.75
2018-03-27T10:10:34.358Z,736.88
2018-03-27T10:11:34.335Z,714.38
2018-03-27T10:12:34.307Z,686.25
2018-03-27T10:13:34.279Z,658.13
2018-03-27T10:14:34.273Z,635.63
2018-03-27T10:15:34.225Z,618.75
2018-03-27T10:16:34.196Z,596.25
2018-03-27T10:17:34.171Z,568.13
2018-03-27T10:18:34.141Z,551.25
2018-03-27T10:19:34.115Z,528.75
2018-03-27T10:20:34.109Z,528.75
2018-03-27T10:21:34.068Z,523.13
2018-03-27T10:22:34.038Z,506.25
2018-03-27T10:23:34.036Z,478.13
2018-03-27T10:24:34.005Z,450.00
2018-03-27T10:25:35.547Z,416.25
2018-03-27T10:26:35.542Z,393.75
2018-03-27T10:27:33.911Z,371.25
2018-03-27T10:28:33.887Z,343.13
2018-03-27T10:29:33.935Z,320.63
2018-03-27T10:30:33.832Z,315.00
2018-03-27T10:31:33.792Z,315.00
2018-03-27T10:32:33.796Z,326.25
2018-03-27T10:33:33.740Z,343.13
2018-03-27T10:34:33.722Z,365.63
2018-03-27T10:35:33.693Z,388.13
2018-03-27T10:36:33.662Z,405.00
2018-03-27T10:37:33.643Z,410.63
2018-03-27T10:38:33.611Z,405.00
2018-03-27T10:39:33.582Z,410.63
2018-03-27T10:40:33.552Z,421.88
2018-03-27T10:41:33.522Z,438.75
2018-03-27T10:42:33.497Z,444.38
2018-03-27T10:43:33.471Z,433.13
2018-03-27T10:44:33.443Z,427.50
2018-03-27T10:45:33.425Z,427.50
2018-03-27T10:46:33.392Z,433.13
2018-03-27T10:47:33.370Z,444.38
2018-03-27T10:48:33.342Z,461.25
2018-03-27T10:49:33.315Z,489.38
2018-03-27T10:50:35.045Z,517.50
2018-03-27T10:51:33.254Z,551.25
2018-03-27T10:52:33.231Z,579.38
2018-03-27T10:53:33.201Z,613.13
2018-03-27T10:54:33.168Z,663.75
2018-03-27T10:55:33.141Z,720.00
2018-03-27T10:56:33.114Z,770.63
2018-03-27T10:57:33.090Z,815.63
2018-03-27T10:58:33.061Z,849.38
2018-03-27T10:59:33.035Z,883.13
2018-03-27T11:00:33.006Z,922.50
2018-03-27T11:01:32.990Z,978.75
2018-03-27T11:02:32.961Z,1029.38
2018-03-27T11:03:32.932Z,1063.13
2018-03-27T11:04:32.913Z,1102.50
2018-03-27T11:05:32.876Z,1153.13
2018-03-27T11:06:32.851Z,1198.13
2018-03-27T11:07:32.827Z,1203.75
2018-03-27T11:08:32.801Z,1141.88
2018-03-27T11:09:32.807Z,1046.25
2018-03-27T11:10:32.745Z,995.63
2018-03-27T11:11:32.752Z,967.50
2018-03-27T11:12:32.711Z,905.63
2018-03-27T11:13:32.670Z,871.88
2018-03-27T11:14:32.642Z,883.13
2018-03-27T11:15:32.629Z,905.63
2018-03-27T11:16:32.591Z,922.50
2018-03-27T11:17:35.570Z,973.13
2018-03-27T11:18:32.551Z,995.63
2018-03-27T11:19:32.522Z,1001.25
2018-03-27T11:20:32.488Z,984.38
2018-03-27T11:21:32.472Z,950.63
2018-03-27T11:22:32.444Z,916.88
2018-03-27T11:23:32.416Z,922.50
2018-03-27T11:24:32.387Z,939.38
2018-03-27T11:25:32.363Z,967.50
2018-03-27T11:26:32.337Z,933.75
2018-03-27T11:27:32.313Z,877.50
2018-03-27T11:28:32.282Z,832.50
2018-03-27T11:29:32.262Z,781.88
2018-03-27T11:30:32.233Z,708.75
2018-03-27T11:31:32.207Z,658.13
2018-03-27T11:32:32.177Z,641.25
2018-03-27T11:33:32.159Z,635.63
2018-03-27T11:34:32.136Z,630.00
2018-03-27T11:35:32.115Z,601.88
2018-03-27T11:36:32.092Z,573.75
2018-03-27T11:37:32.064Z,556.88
2018-03-27T11:38:32.031Z,562.50
2018-03-27T11:39:32.011Z,568.13
2018-03-27T11:40:31.987Z,568.13
2018-03-27T11:41:31.967Z,579.38
2018-03-27T11:42:31.936Z,607.50
2018-03-27T11:43:31.909Z,624.38
2018-03-27T11:44:31.882Z,618.75
2018-03-27T11:45:31.851Z,641.25
2018-03-27T11:46:31.826Z,686.25
2018-03-27T11:47:31.801Z,736.88
2018-03-27T11:48:31.787Z,770.63
2018-03-27T11:49:31.792Z,776.25
2018-03-27T11:50:31.725Z,753.75
2018-03-27T11:51:31.711Z,731.25
2018-03-27T11:52:31.695Z,697.50
2018-03-27T11:53:31.656Z,675.00
2018-03-27T11:54:31.662Z,680.63
2018-03-27T11:55:31.631Z,675.00
2018-03-27T11:56:33.558Z,675.00
2018-03-27T11:57:31.551Z,686.25
2018-03-27T11:58:31.525Z,725.63
2018-03-27T11:59:31.502Z,731.25
2018-03-27T12:00:31.470Z,630.00
2018-03-27T12:01:31.511Z,545.63
2018-03-27T12:02:31.422Z,483.75
2018-03-27T12:03:31.395Z,500.63
2018-03-27T12:04:31.364Z,551.25
2018-03-27T12:05:31.351Z,613.13
2018-03-27T12:06:31.328Z,641.25
2018-03-27T12:07:31.360Z,641.25
2018-03-27T12:08:31.270Z,680.63
2018-03-27T12:09:31.259Z,765.00
2018-03-27T12:10:31.228Z,703.13
2018-03-27T12:11:31.200Z,686.25
2018-03-27T12:12:31.170Z,714.38
2018-03-27T12:13:31.144Z,759.38
2018-03-27T12:14:31.113Z,765.00
2018-03-27T12:15:31.085Z,810.00
2018-03-27T12:16:31.062Z,832.50
2018-03-27T12:17:31.035Z,838.13
2018-03-27T12:18:31.012Z,939.38
2018-03-27T12:19:30.982Z,1591.88
2018-03-27T12:20:30.966Z,1254.38
2018-03-27T12:21:30.931Z,1721.25
2018-03-27T12:22:30.911Z,1867.50
2018-03-27T12:23:30.886Z,1451.25
2018-03-27T12:24:30.860Z,1215.00
2018-03-27T12:25:30.846Z,1681.88
2018-03-27T12:26:30.863Z,1738.13
2018-03-27T12:27:30.788Z,2615.63
2018-03-27T12:28:30.776Z,1805.63
2018-03-27T12:29:30.751Z,978.75
2018-03-27T12:30:30.714Z,933.75
2018-03-27T12:31:30.696Z,1170.00
2018-03-27T12:32:30.692Z,1428.75
2018-03-27T12:33:30.642Z,1473.75
2018-03-27T12:34:30.613Z,1265.63
2018-03-27T12:35:30.597Z,1220.63
2018-03-27T12:36:30.573Z,1125.00
2018-03-27T12:37:30.553Z,1175.63
2018-03-27T12:38:30.534Z,1254.38
2018-03-27T12:39:30.503Z,1248.75
2018-03-27T12:40:30.483Z,1316.25
2018-03-27T12:41:30.449Z,1130.63
2018-03-27T12:42:30.428Z,1051.88
2018-03-27T12:43:30.530Z,990.00
2018-03-27T12:44:30.373Z,776.25
2018-03-27T12:45:30.355Z,703.13
2018-03-27T12:46:30.337Z,663.75
2018-03-27T12:47:30.304Z,635.63
2018-03-27T12:48:30.286Z,613.13
2018-03-27T12:49:30.261Z,607.50
2018-03-27T12:50:30.238Z,579.38
2018-03-27T12:51:30.218Z,573.75
2018-03-27T12:52:30.193Z,579.38
2018-03-27T12:53:30.341Z,590.63
2018-03-27T12:54:30.592Z,585.00
2018-03-27T12:55:30.114Z,551.25
2018-03-27T12:56:30.151Z,500.63
2018-03-27T12:57:30.195Z,450.00
2018-03-27T12:58:30.071Z,421.88
2018-03-27T12:59:30.276Z,382.50
2018-03-27T13:00:30.067Z,354.38
2018-03-27T13:01:32.594Z,326.25
2018-03-27T13:02:29.952Z,320.63
2018-03-27T13:03:29.932Z,315.00
2018-03-27T13:04:29.897Z,320.63
2018-03-27T13:05:29.978Z,331.88
2018-03-27T13:06:29.854Z,337.50
2018-03-27T13:07:29.843Z,343.13
2018-03-27T13:08:29.932Z,343.13